sensor_id;sensor_type;location;lat;lon;timestamp;pressure;altitude;pressure_sealevel;temperature;humidity
16190;BME280;41754;51.498;7.540;2023-04-03T00:00:46;101692.78;;;1.37;71.76
16190;BME280;41754;51.498;7.540;2023-04-03T00:03:17;101690.50;;;1.34;71.19
16190;BME280;41754;51.498;7.540;2023-04-03T00:05:45;101690.28;;;1.36;71.57
16190;BME280;41754;51.498;7.540;2023-04-03T00:08:13;101689.88;;;1.32;71.10
16190;BME280;41754;51.498;7.540;2023-04-03T00:10:41;101686.97;;;1.27;71.98
16190;BME280;41754;51.498;7.540;2023-04-03T00:13:10;101680.88;;;1.38;71.64
16190;BME280;41754;51.498;7.540;2023-04-03T00:15:38;101684.09;;;1.22;71.97
16190;BME280;41754;51.498;7.540;2023-04-03T00:18:06;101685.75;;;1.23;72.40
16190;BME280;41754;51.498;7.540;2023-04-03T00:20:36;101687.47;;;1.11;72.56
16190;BME280;41754;51.498;7.540;2023-04-03T00:23:04;101689.13;;;1.12;72.44
16190;BME280;41754;51.498;7.540;2023-04-03T00:25:32;101687.59;;;1.29;72.42
16190;BME280;41754;51.498;7.540;2023-04-03T00:28:00;101692.84;;;1.24;72.00
16190;BME280;41754;51.498;7.540;2023-04-03T00:30:28;101689.91;;;1.19;72.21
16190;BME280;41754;51.498;7.540;2023-04-03T00:32:56;101685.38;;;1.06;72.37
16190;BME280;41754;51.498;7.540;2023-04-03T00:35:24;101686.91;;;0.89;71.99
16190;BME280;41754;51.498;7.540;2023-04-03T00:37:54;101687.03;;;1.14;71.86
16190;BME280;41754;51.498;7.540;2023-04-03T00:40:25;101684.28;;;1.21;71.49
16190;BME280;41754;51.498;7.540;2023-04-03T00:42:56;101692.16;;;1.35;70.75
16190;BME280;41754;51.498;7.540;2023-04-03T00:45:29;101688.97;;;1.45;70.27
16190;BME280;41754;51.498;7.540;2023-04-03T00:47:57;101687.47;;;1.56;69.87
16190;BME280;41754;51.498;7.540;2023-04-03T00:50:29;101692.50;;;1.46;70.06
16190;BME280;41754;51.498;7.540;2023-04-03T00:52:59;101695.56;;;1.62;70.69
16190;BME280;41754;51.498;7.540;2023-04-03T00:55:27;101699.72;;;1.65;70.84
16190;BME280;41754;51.498;7.540;2023-04-03T00:57:56;101702.97;;;1.80;70.25
16190;BME280;41754;51.498;7.540;2023-04-03T01:00:24;101700.94;;;1.69;70.62
16190;BME280;41754;51.498;7.540;2023-04-03T01:02:53;101696.34;;;1.69;70.39
16190;BME280;41754;51.498;7.540;2023-04-03T01:05:22;101704.59;;;1.88;69.83
16190;BME280;41754;51.498;7.540;2023-04-03T01:07:51;101702.03;;;1.99;69.45
16190;BME280;41754;51.498;7.540;2023-04-03T01:10:21;101699.03;;;2.08;69.17
16190;BME280;41754;51.498;7.540;2023-04-03T01:12:50;101701.50;;;1.84;69.29
16190;BME280;41754;51.498;7.540;2023-04-03T01:15:19;101710.50;;;1.78;69.84
16190;BME280;41754;51.498;7.540;2023-04-03T01:17:49;101714.25;;;1.84;69.73
16190;BME280;41754;51.498;7.540;2023-04-03T01:20:50;101707.78;;;1.78;69.28
16190;BME280;41754;51.498;7.540;2023-04-03T01:23:38;101711.78;;;1.69;69.90
16190;BME280;41754;51.498;7.540;2023-04-03T01:26:13;101708.09;;;1.57;70.08
16190;BME280;41754;51.498;7.540;2023-04-03T01:28:42;101700.44;;;1.85;69.83
16190;BME280;41754;51.498;7.540;2023-04-03T01:31:15;101706.03;;;1.90;68.99
16190;BME280;41754;51.498;7.540;2023-04-03T01:33:48;101707.84;;;2.03;68.29
16190;BME280;41754;51.498;7.540;2023-04-03T01:36:20;101705.38;;;1.95;67.79
16190;BME280;41754;51.498;7.540;2023-04-03T01:38:48;101700.00;;;1.88;68.22
16190;BME280;41754;51.498;7.540;2023-04-03T01:41:16;101708.84;;;1.77;68.09
16190;BME280;41754;51.498;7.540;2023-04-03T01:43:46;101707.03;;;1.96;68.24
16190;BME280;41754;51.498;7.540;2023-04-03T01:46:14;101703.25;;;2.04;67.57
16190;BME280;41754;51.498;7.540;2023-04-03T01:48:42;101707.47;;;1.93;67.18
16190;BME280;41754;51.498;7.540;2023-04-03T01:51:11;101701.94;;;2.13;66.61
16190;BME280;41754;51.498;7.540;2023-04-03T01:53:39;101704.44;;;2.08;66.00
16190;BME280;41754;51.498;7.540;2023-04-03T01:56:08;101710.41;;;1.91;65.74
16190;BME280;41754;51.498;7.540;2023-04-03T01:58:36;101701.66;;;1.89;65.91
16190;BME280;41754;51.498;7.540;2023-04-03T02:01:04;101696.59;;;1.99;66.04
16190;BME280;41754;51.498;7.540;2023-04-03T02:03:32;101706.28;;;1.82;66.69
16190;BME280;41754;51.498;7.540;2023-04-03T02:06:00;101710.66;;;1.83;66.48
16190;BME280;41754;51.498;7.540;2023-04-03T02:08:30;101706.13;;;1.77;66.10
16190;BME280;41754;51.498;7.540;2023-04-03T02:10:57;101713.13;;;1.91;66.24
16190;BME280;41754;51.498;7.540;2023-04-03T02:13:25;101704.91;;;1.73;65.66
16190;BME280;41754;51.498;7.540;2023-04-03T02:15:53;101709.94;;;2.01;65.65
16190;BME280;41754;51.498;7.540;2023-04-03T02:18:21;101715.47;;;1.81;66.50
16190;BME280;41754;51.498;7.540;2023-04-03T02:20:49;101716.91;;;1.90;65.77
16190;BME280;41754;51.498;7.540;2023-04-03T02:23:17;101726.31;;;1.88;65.61
16190;BME280;41754;51.498;7.540;2023-04-03T02:25:46;101718.03;;;1.76;65.73
16190;BME280;41754;51.498;7.540;2023-04-03T02:28:15;101727.72;;;1.59;66.09
16190;BME280;41754;51.498;7.540;2023-04-03T02:30:43;101725.19;;;1.64;65.43
16190;BME280;41754;51.498;7.540;2023-04-03T02:33:11;101728.69;;;1.71;65.70
16190;BME280;41754;51.498;7.540;2023-04-03T02:35:39;101726.84;;;1.65;66.15
16190;BME280;41754;51.498;7.540;2023-04-03T02:38:07;101728.13;;;1.62;65.84
16190;BME280;41754;51.498;7.540;2023-04-03T02:40:35;101731.53;;;1.45;66.34
16190;BME280;41754;51.498;7.540;2023-04-03T02:43:04;101736.63;;;1.72;65.51
16190;BME280;41754;51.498;7.540;2023-04-03T02:45:33;101730.19;;;1.67;65.02
16190;BME280;41754;51.498;7.540;2023-04-03T02:48:01;101733.03;;;1.79;65.15
16190;BME280;41754;51.498;7.540;2023-04-03T02:50:29;101736.41;;;1.74;65.03
16190;BME280;41754;51.498;7.540;2023-04-03T02:52:57;101744.56;;;1.74;64.79
16190;BME280;41754;51.498;7.540;2023-04-03T02:55:25;101738.53;;;1.72;64.25
16190;BME280;41754;51.498;7.540;2023-04-03T02:57:55;101739.44;;;1.53;64.66
16190;BME280;41754;51.498;7.540;2023-04-03T03:00:24;101730.69;;;1.51;65.10
16190;BME280;41754;51.498;7.540;2023-04-03T03:02:52;101729.56;;;1.65;64.57
16190;BME280;41754;51.498;7.540;2023-04-03T03:05:21;101731.16;;;1.79;64.45
16190;BME280;41754;51.498;7.540;2023-04-03T03:07:49;101735.72;;;1.40;65.72
16190;BME280;41754;51.498;7.540;2023-04-03T03:10:17;101728.97;;;1.56;65.75
16190;BME280;41754;51.498;7.540;2023-04-03T03:12:45;101732.97;;;1.54;65.16
16190;BME280;41754;51.498;7.540;2023-04-03T03:15:13;101732.72;;;1.62;64.85
16190;BME280;41754;51.498;7.540;2023-04-03T03:17:43;101729.19;;;1.55;65.29
16190;BME280;41754;51.498;7.540;2023-04-03T03:20:12;101732.28;;;1.65;64.64
16190;BME280;41754;51.498;7.540;2023-04-03T03:22:42;101744.97;;;1.71;64.70
16190;BME280;41754;51.498;7.540;2023-04-03T03:25:10;101742.31;;;1.64;64.78
16190;BME280;41754;51.498;7.540;2023-04-03T03:27:38;101736.16;;;1.37;65.48
16190;BME280;41754;51.498;7.540;2023-04-03T03:30:07;101735.44;;;1.55;64.85
16190;BME280;41754;51.498;7.540;2023-04-03T03:32:35;101734.16;;;1.64;64.34
16190;BME280;41754;51.498;7.540;2023-04-03T03:35:05;101736.50;;;1.61;64.35
16190;BME280;41754;51.498;7.540;2023-04-03T03:37:33;101735.66;;;1.54;64.48
16190;BME280;41754;51.498;7.540;2023-04-03T03:40:00;101739.25;;;1.48;64.24
16190;BME280;41754;51.498;7.540;2023-04-03T03:42:30;101740.25;;;1.60;64.17
16190;BME280;41754;51.498;7.540;2023-04-03T03:44:58;101740.88;;;1.62;63.97
16190;BME280;41754;51.498;7.540;2023-04-03T03:47:26;101734.06;;;1.39;64.17
16190;BME280;41754;51.498;7.540;2023-04-03T03:49:55;101738.81;;;1.51;63.99
16190;BME280;41754;51.498;7.540;2023-04-03T03:52:24;101734.06;;;1.39;64.21
16190;BME280;41754;51.498;7.540;2023-04-03T03:54:53;101736.56;;;1.48;63.88
16190;BME280;41754;51.498;7.540;2023-04-03T03:57:21;101733.69;;;1.29;64.14
16190;BME280;41754;51.498;7.540;2023-04-03T03:59:49;101746.59;;;1.34;64.07
16190;BME280;41754;51.498;7.540;2023-04-03T04:02:19;101748.63;;;1.45;64.07
16190;BME280;41754;51.498;7.540;2023-04-03T04:04:48;101752.88;;;1.21;64.54
16190;BME280;41754;51.498;7.540;2023-04-03T04:07:16;101754.94;;;1.32;64.39
16190;BME280;41754;51.498;7.540;2023-04-03T04:09:45;101750.44;;;1.13;64.90
16190;BME280;41754;51.498;7.540;2023-04-03T04:12:13;101758.38;;;0.95;65.97
16190;BME280;41754;51.498;7.540;2023-04-03T04:14:42;101757.09;;;1.17;65.67
16190;BME280;41754;51.498;7.540;2023-04-03T04:17:14;101749.16;;;1.09;65.57
16190;BME280;41754;51.498;7.540;2023-04-03T04:19:42;101749.19;;;1.02;65.84
16190;BME280;41754;51.498;7.540;2023-04-03T04:22:10;101754.19;;;1.05;65.67
16190;BME280;41754;51.498;7.540;2023-04-03T04:24:38;101756.69;;;1.13;65.46
16190;BME280;41754;51.498;7.540;2023-04-03T04:27:09;101753.16;;;0.93;65.70
16190;BME280;41754;51.498;7.540;2023-04-03T04:29:37;101754.63;;;0.96;66.49
16190;BME280;41754;51.498;7.540;2023-04-03T04:32:07;101759.44;;;0.80;66.43
16190;BME280;41754;51.498;7.540;2023-04-03T04:34:35;101763.19;;;0.93;66.29
16190;BME280;41754;51.498;7.540;2023-04-03T04:37:03;101766.31;;;0.90;66.53
16190;BME280;41754;51.498;7.540;2023-04-03T04:39:31;101767.78;;;0.79;67.27
16190;BME280;41754;51.498;7.540;2023-04-03T04:42:00;101756.75;;;0.87;66.64
16190;BME280;41754;51.498;7.540;2023-04-03T04:44:31;101756.28;;;0.97;66.16
16190;BME280;41754;51.498;7.540;2023-04-03T04:46:59;101773.81;;;0.81;66.62
16190;BME280;41754;51.498;7.540;2023-04-03T04:49:27;101776.13;;;0.77;66.68
16190;BME280;41754;51.498;7.540;2023-04-03T04:51:55;101780.47;;;0.92;66.32
16190;BME280;41754;51.498;7.540;2023-04-03T04:54:27;101775.72;;;0.87;66.57
16190;BME280;41754;51.498;7.540;2023-04-03T04:56:56;101782.38;;;0.91;66.11
16190;BME280;41754;51.498;7.540;2023-04-03T04:59:25;101784.44;;;0.82;66.35
16190;BME280;41754;51.498;7.540;2023-04-03T05:01:57;101786.13;;;0.44;67.18
16190;BME280;41754;51.498;7.540;2023-04-03T05:04:26;101788.44;;;0.60;67.04
16190;BME280;41754;51.498;7.540;2023-04-03T05:07:00;101791.75;;;0.82;66.92
16190;BME280;41754;51.498;7.540;2023-04-03T05:09:30;101798.63;;;0.78;67.08
16190;BME280;41754;51.498;7.540;2023-04-03T05:11:58;101791.53;;;0.83;66.69
16190;BME280;41754;51.498;7.540;2023-04-03T05:14:30;101790.06;;;0.94;66.23
16190;BME280;41754;51.498;7.540;2023-04-03T05:17:03;101799.03;;;0.81;65.92
16190;BME280;41754;51.498;7.540;2023-04-03T05:19:34;101807.59;;;0.85;66.18
16190;BME280;41754;51.498;7.540;2023-04-03T05:22:03;101809.03;;;0.81;65.75
16190;BME280;41754;51.498;7.540;2023-04-03T05:24:31;101807.38;;;0.80;66.33
16190;BME280;41754;51.498;7.540;2023-04-03T05:26:59;101811.34;;;0.71;66.94
16190;BME280;41754;51.498;7.540;2023-04-03T05:29:28;101817.63;;;0.85;66.22
16190;BME280;41754;51.498;7.540;2023-04-03T05:31:58;101818.03;;;0.75;66.38
16190;BME280;41754;51.498;7.540;2023-04-03T05:34:27;101819.47;;;1.04;66.36
16190;BME280;41754;51.498;7.540;2023-04-03T05:36:56;101818.84;;;1.02;65.95
16190;BME280;41754;51.498;7.540;2023-04-03T05:39:26;101814.00;;;1.24;65.37
16190;BME280;41754;51.498;7.540;2023-04-03T05:41:55;101815.50;;;1.00;65.66
16190;BME280;41754;51.498;7.540;2023-04-03T05:44:23;101825.41;;;1.52;64.56
16190;BME280;41754;51.498;7.540;2023-04-03T05:46:52;101837.16;;;1.20;65.51
16190;BME280;41754;51.498;7.540;2023-04-03T05:49:20;101837.97;;;1.33;64.53
16190;BME280;41754;51.498;7.540;2023-04-03T05:51:50;101838.56;;;1.49;64.05
16190;BME280;41754;51.498;7.540;2023-04-03T05:54:24;101836.47;;;1.51;64.08
16190;BME280;41754;51.498;7.540;2023-04-03T05:56:58;101846.00;;;1.73;63.50
16190;BME280;41754;51.498;7.540;2023-04-03T05:59:26;101848.41;;;1.94;62.88
16190;BME280;41754;51.498;7.540;2023-04-03T06:01:57;101850.56;;;1.79;62.71
16190;BME280;41754;51.498;7.540;2023-04-03T06:04:24;101857.81;;;1.92;62.38
16190;BME280;41754;51.498;7.540;2023-04-03T06:06:56;101847.09;;;1.52;62.89
16190;BME280;41754;51.498;7.540;2023-04-03T06:09:27;101857.47;;;1.75;62.38
16190;BME280;41754;51.498;7.540;2023-04-03T06:11:56;101851.50;;;2.11;61.62
16190;BME280;41754;51.498;7.540;2023-04-03T06:14:26;101861.09;;;2.45;61.30
16190;BME280;41754;51.498;7.540;2023-04-03T06:16:54;101870.34;;;1.93;61.73
16190;BME280;41754;51.498;7.540;2023-04-03T06:19:22;101859.91;;;1.96;61.44
16190;BME280;41754;51.498;7.540;2023-04-03T06:21:55;101861.00;;;2.27;61.10
16190;BME280;41754;51.498;7.540;2023-04-03T06:24:24;101857.25;;;2.28;60.62
16190;BME280;41754;51.498;7.540;2023-04-03T06:26:52;101860.09;;;2.40;59.80
16190;BME280;41754;51.498;7.540;2023-04-03T06:29:20;101863.88;;;2.32;59.36
16190;BME280;41754;51.498;7.540;2023-04-03T06:31:49;101852.56;;;2.42;60.13
16190;BME280;41754;51.498;7.540;2023-04-03T06:34:17;101869.13;;;2.34;59.69
16190;BME280;41754;51.498;7.540;2023-04-03T06:36:45;101863.03;;;2.38;59.35
16190;BME280;41754;51.498;7.540;2023-04-03T06:39:16;101869.34;;;2.64;59.62
16190;BME280;41754;51.498;7.540;2023-04-03T06:41:44;101862.47;;;2.61;58.03
16190;BME280;41754;51.498;7.540;2023-04-03T06:44:12;101868.22;;;2.46;58.39
16190;BME280;41754;51.498;7.540;2023-04-03T06:46:43;101862.06;;;2.57;58.15
16190;BME280;41754;51.498;7.540;2023-04-03T06:49:11;101867.03;;;2.99;57.54
16190;BME280;41754;51.498;7.540;2023-04-03T06:51:39;101870.22;;;2.89;57.96
16190;BME280;41754;51.498;7.540;2023-04-03T06:54:07;101858.66;;;3.00;57.31
16190;BME280;41754;51.498;7.540;2023-04-03T06:56:37;101866.56;;;3.27;57.02
16190;BME280;41754;51.498;7.540;2023-04-03T06:59:04;101867.31;;;2.84;57.15
16190;BME280;41754;51.498;7.540;2023-04-03T07:01:32;101865.22;;;3.54;56.09
16190;BME280;41754;51.498;7.540;2023-04-03T07:04:00;101865.41;;;3.16;56.08
16190;BME280;41754;51.498;7.540;2023-04-03T07:06:29;101871.91;;;3.58;55.61
16190;BME280;41754;51.498;7.540;2023-04-03T07:08:59;101875.19;;;3.24;55.26
16190;BME280;41754;51.498;7.540;2023-04-03T07:11:27;101887.31;;;3.64;55.21
16190;BME280;41754;51.498;7.540;2023-04-03T07:13:56;101882.88;;;3.27;54.90
16190;BME280;41754;51.498;7.540;2023-04-03T07:16:24;101883.81;;;3.39;55.30
16190;BME280;41754;51.498;7.540;2023-04-03T07:18:52;101883.41;;;3.60;54.99
16190;BME280;41754;51.498;7.540;2023-04-03T07:21:19;101888.53;;;3.50;55.25
16190;BME280;41754;51.498;7.540;2023-04-03T07:23:47;101894.19;;;4.03;53.67
16190;BME280;41754;51.498;7.540;2023-04-03T07:26:20;101890.66;;;3.85;54.13
16190;BME280;41754;51.498;7.540;2023-04-03T07:28:49;101893.22;;;3.61;54.42
16190;BME280;41754;51.498;7.540;2023-04-03T07:31:18;101896.97;;;3.42;54.61
16190;BME280;41754;51.498;7.540;2023-04-03T07:33:47;101902.63;;;3.84;55.64
16190;BME280;41754;51.498;7.540;2023-04-03T07:36:17;101905.81;;;4.47;53.32
16190;BME280;41754;51.498;7.540;2023-04-03T07:38:45;101904.28;;;4.81;52.69
16190;BME280;41754;51.498;7.540;2023-04-03T07:41:15;101910.00;;;4.13;52.68
16190;BME280;41754;51.498;7.540;2023-04-03T07:43:44;101904.09;;;4.34;52.30
16190;BME280;41754;51.498;7.540;2023-04-03T07:46:13;101906.84;;;4.76;52.11
16190;BME280;41754;51.498;7.540;2023-04-03T07:48:43;101906.72;;;4.71;51.41
16190;BME280;41754;51.498;7.540;2023-04-03T07:51:12;101906.34;;;4.68;51.55
16190;BME280;41754;51.498;7.540;2023-04-03T07:53:40;101907.81;;;4.82;51.48
16190;BME280;41754;51.498;7.540;2023-04-03T07:56:08;101907.97;;;4.99;50.35
16190;BME280;41754;51.498;7.540;2023-04-03T07:58:37;101911.97;;;4.84;51.09
16190;BME280;41754;51.498;7.540;2023-04-03T08:01:04;101910.50;;;4.70;49.88
16190;BME280;41754;51.498;7.540;2023-04-03T08:03:32;101915.28;;;4.56;50.89
16190;BME280;41754;51.498;7.540;2023-04-03T08:06:04;101915.19;;;4.81;50.34
16190;BME280;41754;51.498;7.540;2023-04-03T08:08:40;101921.66;;;4.80;49.68
16190;BME280;41754;51.498;7.540;2023-04-03T08:11:09;101916.41;;;4.67;50.65
16190;BME280;41754;51.498;7.540;2023-04-03T08:13:38;101920.66;;;4.63;50.45
16190;BME280;41754;51.498;7.540;2023-04-03T08:16:10;101916.47;;;4.90;50.30
16190;BME280;41754;51.498;7.540;2023-04-03T08:18:38;101915.84;;;4.77;50.96
16190;BME280;41754;51.498;7.540;2023-04-03T08:21:09;101914.47;;;4.86;49.80
16190;BME280;41754;51.498;7.540;2023-04-03T08:23:37;101907.50;;;5.02;49.76
16190;BME280;41754;51.498;7.540;2023-04-03T08:26:07;101907.56;;;5.48;49.55
16190;BME280;41754;51.498;7.540;2023-04-03T08:28:35;101913.16;;;4.88;50.79
16190;BME280;41754;51.498;7.540;2023-04-03T08:31:04;101908.06;;;5.45;49.39
16190;BME280;41754;51.498;7.540;2023-04-03T08:33:34;101907.50;;;6.19;47.43
16190;BME280;41754;51.498;7.540;2023-04-03T08:36:04;101911.13;;;5.37;47.48
16190;BME280;41754;51.498;7.540;2023-04-03T08:38:34;101911.63;;;5.58;47.58
16190;BME280;41754;51.498;7.540;2023-04-03T08:41:11;101905.44;;;5.50;48.13
16190;BME280;41754;51.498;7.540;2023-04-03T08:43:53;101905.75;;;5.89;46.96
16190;BME280;41754;51.498;7.540;2023-04-03T08:46:28;101900.16;;;6.07;46.72
16190;BME280;41754;51.498;7.540;2023-04-03T08:48:59;101905.44;;;5.74;47.58
16190;BME280;41754;51.498;7.540;2023-04-03T08:51:28;101905.94;;;6.11;45.82
16190;BME280;41754;51.498;7.540;2023-04-03T08:54:01;101910.72;;;5.92;46.11
16190;BME280;41754;51.498;7.540;2023-04-03T08:56:30;101913.59;;;6.37;44.79
16190;BME280;41754;51.498;7.540;2023-04-03T08:59:00;101919.13;;;7.16;43.92
16190;BME280;41754;51.498;7.540;2023-04-03T09:01:35;101922.47;;;7.18;42.16
16190;BME280;41754;51.498;7.540;2023-04-03T09:04:11;101911.28;;;6.75;42.60
16190;BME280;41754;51.498;7.540;2023-04-03T09:06:43;101916.47;;;6.59;43.27
16190;BME280;41754;51.498;7.540;2023-04-03T09:09:27;101918.09;;;6.89;43.26
16190;BME280;41754;51.498;7.540;2023-04-03T09:12:04;101906.97;;;6.33;43.18
16190;BME280;41754;51.498;7.540;2023-04-03T09:14:38;101913.19;;;7.19;42.46
16190;BME280;41754;51.498;7.540;2023-04-03T09:17:13;101914.84;;;7.20;42.06
16190;BME280;41754;51.498;7.540;2023-04-03T09:19:49;101912.88;;;6.70;43.06
16190;BME280;41754;51.498;7.540;2023-04-03T09:22:22;101916.13;;;6.84;42.65
16190;BME280;41754;51.498;7.540;2023-04-03T09:24:57;101914.00;;;7.20;42.83
16190;BME280;41754;51.498;7.540;2023-04-03T09:27:27;101917.69;;;7.81;42.24
16190;BME280;41754;51.498;7.540;2023-04-03T09:29:56;101921.53;;;7.63;41.03
16190;BME280;41754;51.498;7.540;2023-04-03T09:32:27;101916.69;;;7.32;40.97
16190;BME280;41754;51.498;7.540;2023-04-03T09:34:59;101915.75;;;7.26;41.80
16190;BME280;41754;51.498;7.540;2023-04-03T09:37:46;101911.13;;;7.82;40.93
16190;BME280;41754;51.498;7.540;2023-04-03T09:40:34;101917.50;;;7.32;40.96
16190;BME280;41754;51.498;7.540;2023-04-03T09:43:20;101908.44;;;7.87;41.32
16190;BME280;41754;51.498;7.540;2023-04-03T09:45:49;101909.84;;;7.89;40.28
16190;BME280;41754;51.498;7.540;2023-04-03T09:48:19;101909.69;;;8.18;39.51
16190;BME280;41754;51.498;7.540;2023-04-03T09:51:00;101909.44;;;8.41;39.61
16190;BME280;41754;51.498;7.540;2023-04-03T09:53:33;101900.00;;;8.32;39.01
16190;BME280;41754;51.498;7.540;2023-04-03T09:56:05;101905.22;;;8.61;40.49
16190;BME280;41754;51.498;7.540;2023-04-03T09:58:49;101897.34;;;7.77;38.63
16190;BME280;41754;51.498;7.540;2023-04-03T10:01:23;101892.38;;;8.39;39.55
16190;BME280;41754;51.498;7.540;2023-04-03T10:04:05;101893.19;;;8.40;39.44
16190;BME280;41754;51.498;7.540;2023-04-03T10:06:35;101894.94;;;8.73;38.36
16190;BME280;41754;51.498;7.540;2023-04-03T10:09:05;101893.34;;;8.28;37.33
16190;BME280;41754;51.498;7.540;2023-04-03T10:11:36;101893.22;;;7.74;38.64
16190;BME280;41754;51.498;7.540;2023-04-03T10:14:04;101896.28;;;8.00;37.52
16190;BME280;41754;51.498;7.540;2023-04-03T10:16:36;101893.72;;;8.37;36.42
16190;BME280;41754;51.498;7.540;2023-04-03T10:19:34;101887.66;;;8.57;37.37
16190;BME280;41754;51.498;7.540;2023-04-03T10:22:12;101876.41;;;8.85;37.54
16190;BME280;41754;51.498;7.540;2023-04-03T10:24:49;101887.69;;;9.16;36.76
16190;BME280;41754;51.498;7.540;2023-04-03T10:27:31;101883.06;;;9.26;35.32
16190;BME280;41754;51.498;7.540;2023-04-03T10:30:13;101866.72;;;9.42;35.90
16190;BME280;41754;51.498;7.540;2023-04-03T10:32:54;101865.69;;;9.16;34.56
16190;BME280;41754;51.498;7.540;2023-04-03T10:35:36;101863.41;;;9.92;34.58
16190;BME280;41754;51.498;7.540;2023-04-03T10:38:09;101873.97;;;9.21;33.02
16190;BME280;41754;51.498;7.540;2023-04-03T10:40:45;101864.72;;;9.00;31.57
16190;BME280;41754;51.498;7.540;2023-04-03T10:43:24;101875.97;;;8.98;33.44
16190;BME280;41754;51.498;7.540;2023-04-03T10:45:59;101879.28;;;8.73;34.51
16190;BME280;41754;51.498;7.540;2023-04-03T10:48:38;101874.28;;;9.67;33.67
16190;BME280;41754;51.498;7.540;2023-04-03T10:51:16;101876.31;;;11.25;32.33
16190;BME280;41754;51.498;7.540;2023-04-03T10:53:53;101865.63;;;12.68;29.99
16190;BME280;41754;51.498;7.540;2023-04-03T10:56:30;101873.03;;;12.78;28.27
16190;BME280;41754;51.498;7.540;2023-04-03T10:59:08;101852.13;;;13.83;28.38
16190;BME280;41754;51.498;7.540;2023-04-03T11:01:44;101852.38;;;15.18;26.60
16190;BME280;41754;51.498;7.540;2023-04-03T11:04:13;101853.75;;;12.68;26.08
16190;BME280;41754;51.498;7.540;2023-04-03T11:06:45;101854.06;;;13.29;24.87
16190;BME280;41754;51.498;7.540;2023-04-03T11:09:21;101857.78;;;14.58;25.27
16190;BME280;41754;51.498;7.540;2023-04-03T11:11:51;101849.81;;;15.22;24.58
16190;BME280;41754;51.498;7.540;2023-04-03T11:14:26;101842.22;;;15.13;23.72
16190;BME280;41754;51.498;7.540;2023-04-03T11:17:15;101834.50;;;14.78;24.52
16190;BME280;41754;51.498;7.540;2023-04-03T11:19:52;101829.19;;;15.74;24.26
16190;BME280;41754;51.498;7.540;2023-04-03T11:22:27;101832.72;;;17.10;22.89
16190;BME280;41754;51.498;7.540;2023-04-03T11:25:02;101835.91;;;16.73;22.08
16190;BME280;41754;51.498;7.540;2023-04-03T11:27:37;101824.00;;;15.54;21.45
16190;BME280;41754;51.498;7.540;2023-04-03T11:30:15;101821.63;;;15.47;22.16
16190;BME280;41754;51.498;7.540;2023-04-03T11:32:57;101824.66;;;15.78;23.45
16190;BME280;41754;51.498;7.540;2023-04-03T11:35:29;101826.25;;;17.23;21.67
16190;BME280;41754;51.498;7.540;2023-04-03T11:37:59;101819.59;;;17.64;21.27
16190;BME280;41754;51.498;7.540;2023-04-03T11:40:31;101820.13;;;19.86;19.85
16190;BME280;41754;51.498;7.540;2023-04-03T11:43:06;101820.59;;;17.37;20.89
16190;BME280;41754;51.498;7.540;2023-04-03T11:45:38;101802.56;;;16.59;21.11
16190;BME280;41754;51.498;7.540;2023-04-03T11:51:40;101792.47;;;17.96;19.70
16190;BME280;41754;51.498;7.540;2023-04-03T11:54:46;101800.81;;;17.78;19.76
16190;BME280;41754;51.498;7.540;2023-04-03T11:57:47;101796.13;;;17.57;19.66
16190;BME280;41754;51.498;7.540;2023-04-03T12:01:00;101796.50;;;17.64;19.80
16190;BME280;41754;51.498;7.540;2023-04-03T12:03:56;101787.97;;;18.26;19.83
16190;BME280;41754;51.498;7.540;2023-04-03T12:10:00;101788.59;;;17.57;19.94
16190;BME280;41754;51.498;7.540;2023-04-03T12:12:34;101791.91;;;18.51;19.52
16190;BME280;41754;51.498;7.540;2023-04-03T12:15:19;101790.38;;;18.19;19.68
16190;BME280;41754;51.498;7.540;2023-04-03T12:17:48;101778.47;;;20.23;17.97
16190;BME280;41754;51.498;7.540;2023-04-03T12:20:51;101788.72;;;19.13;18.53
16190;BME280;41754;51.498;7.540;2023-04-03T12:23:28;101778.19;;;20.36;18.14
16190;BME280;41754;51.498;7.540;2023-04-03T12:26:08;101785.06;;;20.93;17.01
16190;BME280;41754;51.498;7.540;2023-04-03T12:28:50;101769.66;;;19.91;18.06
16190;BME280;41754;51.498;7.540;2023-04-03T12:31:20;101769.91;;;20.82;16.91
16190;BME280;41754;51.498;7.540;2023-04-03T12:34:11;101763.66;;;20.97;17.07
16190;BME280;41754;51.498;7.540;2023-04-03T12:36:52;101767.06;;;20.28;17.81
16190;BME280;41754;51.498;7.540;2023-04-03T12:39:48;101766.56;;;21.58;15.55
16190;BME280;41754;51.498;7.540;2023-04-03T12:42:29;101750.50;;;23.86;14.57
16190;BME280;41754;51.498;7.540;2023-04-03T12:45:02;101761.69;;;21.10;16.77
16190;BME280;41754;51.498;7.540;2023-04-03T12:47:37;101756.47;;;22.18;15.69
16190;BME280;41754;51.498;7.540;2023-04-03T12:50:17;101760.34;;;21.40;15.90
16190;BME280;41754;51.498;7.540;2023-04-03T12:52:51;101755.03;;;21.02;15.83
16190;BME280;41754;51.498;7.540;2023-04-03T12:55:20;101748.66;;;22.39;15.63
16190;BME280;41754;51.498;7.540;2023-04-03T12:57:49;101747.72;;;19.43;17.35
16190;BME280;41754;51.498;7.540;2023-04-03T13:00:35;101731.06;;;21.50;16.29
16190;BME280;41754;51.498;7.540;2023-04-03T13:03:06;101734.09;;;20.54;16.07
16190;BME280;41754;51.498;7.540;2023-04-03T13:05:48;101735.97;;;22.58;15.52
16190;BME280;41754;51.498;7.540;2023-04-03T13:08:17;101742.91;;;20.98;15.97
16190;BME280;41754;51.498;7.540;2023-04-03T13:10:53;101737.09;;;21.76;16.56
16190;BME280;41754;51.498;7.540;2023-04-03T13:13:22;101731.69;;;20.86;16.04
16190;BME280;41754;51.498;7.540;2023-04-03T13:15:50;101736.34;;;22.16;15.04
16190;BME280;41754;51.498;7.540;2023-04-03T13:18:28;101735.75;;;21.34;15.76
16190;BME280;41754;51.498;7.540;2023-04-03T13:21:01;101743.06;;;21.26;16.17
16190;BME280;41754;51.498;7.540;2023-04-03T13:23:31;101723.38;;;24.29;14.09
16190;BME280;41754;51.498;7.540;2023-04-03T13:26:03;101731.72;;;22.64;15.92
16190;BME280;41754;51.498;7.540;2023-04-03T13:28:33;101726.28;;;23.15;15.80